Terminal Aerodrome Forecast
Issued by NWS

Home | Current Version | Previous Version | Text Only | Print | Product List | Glossary On
Versions: 1 2 3 4 5 6 7 8 9 10 11 12
766
FTUS44 KLIX 242320
TAFMCB
TAF
KMCB 242320Z 2500/2524 19008KT P6SM FEW050
     FM250500 17004KT P6SM SCT200
     FM251000 VRB03KT P6SM BKN015
      TEMPO 2512/2515 BKN003
     FM251500 16009KT P6SM SCT250
     FM252100 17010G18KT P6SM SCT250=

USA.gov is the U.S. government's official web portal to all federal, state and local government web resources and services.